createdAt,value
2019-02-15T00:01:44.609Z,46.60
2019-02-15T00:04:16.431Z,53.70
2019-02-15T00:06:48.863Z,34.03
2019-02-15T00:09:19.622Z,30.40
2019-02-15T00:11:50.794Z,33.10
2019-02-15T00:14:22.426Z,31.43
2019-02-15T00:16:54.347Z,34.07
2019-02-15T00:19:27.637Z,37.10
2019-02-15T00:21:59.059Z,30.57
2019-02-15T00:24:30.898Z,30.50
2019-02-15T00:27:01.826Z,33.60
2019-02-15T00:29:32.623Z,36.70
2019-02-15T00:32:06.275Z,38.00
2019-02-15T00:34:37.655Z,34.37
2019-02-15T00:37:09.028Z,30.27
2019-02-15T00:39:40.073Z,29.10
2019-02-15T00:42:11.073Z,28.73
2019-02-15T00:44:42.567Z,30.53
2019-02-15T00:47:15.063Z,37.97
2019-02-15T00:49:46.483Z,31.60
2019-02-15T00:52:19.458Z,24.90
2019-02-15T00:54:51.796Z,30.37
2019-02-15T00:57:24.571Z,28.67
2019-02-15T00:59:57.535Z,31.10
2019-02-15T01:02:30.055Z,27.77
2019-02-15T01:05:02.766Z,29.70
2019-02-15T01:07:35.695Z,30.43
2019-02-15T01:10:08.669Z,34.60
2019-02-15T01:12:41.840Z,36.97
2019-02-15T01:15:13.714Z,34.57
2019-02-15T01:17:45.628Z,38.50
2019-02-15T01:20:17.262Z,30.40
2019-02-15T01:22:48.624Z,30.90
2019-02-15T01:25:20.366Z,35.03
2019-02-15T01:27:52.803Z,33.60
2019-02-15T01:30:25.674Z,29.90
2019-02-15T01:32:59.081Z,35.77
2019-02-15T01:35:32.465Z,30.90
2019-02-15T01:38:05.167Z,32.90
2019-02-15T01:40:37.368Z,32.73
2019-02-15T01:43:10.208Z,38.53
2019-02-15T01:45:42.493Z,34.87
2019-02-15T01:48:13.539Z,33.50
2019-02-15T01:50:44.954Z,35.50
2019-02-15T01:53:16.105Z,31.53
2019-02-15T01:55:47.062Z,36.27
2019-02-15T01:58:17.740Z,34.63
2019-02-15T02:00:49.171Z,35.27
2019-02-15T02:03:21.995Z,40.47
2019-02-15T02:05:53.222Z,39.57
2019-02-15T02:08:26.046Z,36.87
2019-02-15T02:10:56.626Z,38.47
2019-02-15T02:13:27.246Z,38.90
2019-02-15T02:15:58.137Z,39.13
2019-02-15T02:18:29.226Z,37.90
2019-02-15T02:21:00.175Z,35.67
2019-02-15T02:23:31.450Z,36.33
2019-02-15T02:26:02.559Z,36.37
2019-02-15T02:28:33.750Z,33.47
2019-02-15T02:31:04.992Z,38.67
2019-02-15T02:33:37.809Z,36.13
2019-02-15T02:36:08.684Z,39.13
2019-02-15T02:38:39.473Z,39.57
2019-02-15T02:41:10.491Z,43.10
2019-02-15T02:43:41.539Z,42.37
2019-02-15T02:46:13.301Z,40.70
2019-02-15T02:48:44.664Z,35.47
2019-02-15T02:51:16.774Z,39.73
2019-02-15T02:53:48.066Z,37.33
2019-02-15T02:56:18.858Z,41.07
2019-02-15T02:58:50.041Z,41.97
2019-02-15T03:01:23.152Z,46.60
2019-02-15T03:03:54.700Z,46.47
2019-02-15T03:06:25.825Z,41.73
2019-02-15T03:08:56.981Z,40.53
2019-02-15T03:11:28.620Z,43.63
2019-02-15T03:14:10.720Z,40.03
2019-02-15T03:16:32.417Z,47.10
2019-02-15T03:19:03.674Z,38.17
2019-02-15T03:21:34.824Z,43.00
2019-02-15T03:24:05.755Z,45.23
2019-02-15T03:26:37.756Z,42.33
2019-02-15T03:29:08.473Z,36.97
2019-02-15T03:31:39.336Z,45.00
2019-02-15T03:34:11.039Z,37.23
2019-02-15T03:36:44.050Z,45.40
2019-02-15T03:39:16.837Z,41.97
2019-02-15T03:41:47.921Z,44.27
2019-02-15T03:44:22.314Z,43.93
2019-02-15T03:46:52.175Z,35.50
2019-02-15T03:49:23.597Z,40.80
2019-02-15T03:51:54.863Z,46.53
2019-02-15T03:54:26.071Z,50.03
2019-02-15T03:56:56.809Z,46.60
2019-02-15T03:59:27.579Z,46.00
2019-02-15T04:01:58.712Z,47.30
2019-02-15T04:04:30.224Z,42.13
2019-02-15T04:07:01.211Z,42.00
2019-02-15T04:09:32.451Z,46.73
2019-02-15T04:12:03.302Z,45.23
2019-02-15T04:14:34.401Z,47.97
2019-02-15T04:17:05.540Z,44.53
2019-02-15T04:19:36.750Z,40.77
2019-02-15T04:22:07.517Z,43.93
2019-02-15T04:24:38.249Z,40.07
2019-02-15T04:27:09.103Z,43.17
2019-02-15T04:29:40.271Z,44.13
2019-02-15T04:32:11.305Z,47.60
2019-02-15T04:34:45.765Z,43.83
2019-02-15T04:37:16.636Z,41.30
2019-02-15T04:39:47.826Z,44.03
2019-02-15T04:42:18.932Z,46.10
2019-02-15T04:44:50.346Z,47.67
2019-02-15T04:47:21.392Z,52.33
2019-02-15T04:49:52.829Z,45.10
2019-02-15T04:52:25.207Z,48.83
2019-02-15T04:54:56.758Z,50.77
2019-02-15T04:57:27.762Z,47.77
2019-02-15T04:59:58.694Z,43.73
2019-02-15T05:02:33.670Z,46.80
2019-02-15T05:05:05.445Z,47.47
2019-02-15T05:07:37.032Z,42.57
2019-02-15T05:10:08.512Z,45.13
2019-02-15T05:12:39.537Z,44.27
2019-02-15T05:15:11.245Z,40.63
2019-02-15T05:17:42.624Z,44.33
2019-02-15T05:20:13.427Z,43.47
2019-02-15T05:22:44.393Z,46.50
2019-02-15T05:25:15.317Z,47.63
2019-02-15T05:27:46.497Z,42.20
2019-02-15T05:30:17.918Z,50.53
2019-02-15T05:32:49.103Z,45.37
2019-02-15T05:35:20.246Z,44.07
2019-02-15T05:37:52.708Z,43.37
2019-02-15T05:40:23.677Z,46.77
2019-02-15T05:42:54.797Z,45.37
2019-02-15T05:45:26.045Z,44.47
2019-02-15T05:47:58.313Z,38.23
2019-02-15T05:50:30.711Z,46.37
2019-02-15T05:53:02.497Z,40.13
2019-02-15T05:55:33.513Z,40.73
2019-02-15T05:58:04.795Z,47.37
2019-02-15T06:00:37.287Z,45.20
2019-02-15T06:03:09.834Z,42.37
2019-02-15T06:05:41.553Z,40.30
2019-02-15T06:08:13.191Z,50.00
2019-02-15T06:10:44.737Z,43.80
2019-02-15T06:13:16.270Z,40.80
2019-02-15T06:15:47.789Z,40.27
2019-02-15T06:18:19.799Z,41.50
2019-02-15T06:20:51.381Z,39.87
2019-02-15T06:23:23.985Z,40.57
2019-02-15T06:25:56.221Z,44.07
2019-02-15T06:28:27.833Z,41.77
2019-02-15T06:30:59.954Z,43.73
2019-02-15T06:33:31.049Z,44.47
2019-02-15T06:36:02.947Z,38.43
2019-02-15T06:38:35.076Z,46.77
2019-02-15T06:41:07.485Z,41.10
2019-02-15T06:43:40.409Z,40.47
2019-02-15T06:46:12.187Z,42.77
2019-02-15T06:48:44.222Z,50.40
2019-02-15T06:51:15.286Z,45.67
2019-02-15T06:53:46.986Z,44.43
2019-02-15T06:56:19.493Z,42.07
2019-02-15T06:58:53.295Z,45.17
2019-02-15T07:01:26.231Z,43.27
2019-02-15T07:03:59.614Z,38.33
2019-02-15T07:06:30.600Z,41.83
2019-02-15T07:09:01.362Z,37.67
2019-02-15T07:11:33.935Z,44.47
2019-02-15T07:14:05.255Z,38.57
2019-02-15T07:16:36.147Z,42.53
2019-02-15T07:19:07.069Z,38.07
2019-02-15T07:21:37.620Z,44.20
2019-02-15T07:24:08.342Z,39.60
2019-02-15T07:26:39.495Z,41.97
2019-02-15T07:29:10.016Z,42.40
2019-02-15T07:31:40.699Z,43.80
2019-02-15T07:34:11.290Z,45.33
2019-02-15T07:36:42.777Z,45.17
2019-02-15T07:39:13.778Z,43.97
2019-02-15T07:41:44.848Z,46.87
2019-02-15T07:44:16.095Z,44.50
2019-02-15T07:46:48.057Z,46.73
2019-02-15T07:49:26.650Z,42.83
2019-02-15T07:51:51.657Z,43.70
2019-02-15T07:54:23.882Z,43.27
2019-02-15T07:56:54.897Z,47.17
2019-02-15T07:59:25.862Z,50.37
2019-02-15T08:02:01.806Z,48.67
2019-02-15T08:04:30.665Z,47.57
2019-02-15T08:07:03.530Z,38.70
2019-02-15T08:09:36.890Z,42.33
2019-02-15T08:12:09.895Z,51.07
2019-02-15T08:14:41.729Z,46.07
2019-02-15T08:17:13.411Z,49.17
2019-02-15T08:19:44.735Z,42.90
2019-02-15T08:22:17.574Z,45.20
2019-02-15T08:24:48.288Z,42.33
2019-02-15T08:27:19.729Z,41.67
2019-02-15T08:29:51.047Z,36.67
2019-02-15T08:32:22.606Z,41.60
2019-02-15T08:34:54.632Z,39.10
2019-02-15T08:37:27.529Z,37.43
2019-02-15T08:39:58.496Z,42.97
2019-02-15T08:42:35.726Z,37.97
2019-02-15T08:45:09.889Z,40.30
2019-02-15T08:47:46.569Z,38.30
2019-02-15T08:50:20.567Z,38.60
2019-02-15T08:52:52.310Z,41.40
2019-02-15T08:55:23.362Z,33.67
2019-02-15T08:57:54.727Z,37.53
2019-02-15T09:00:26.010Z,45.90
2019-02-15T09:02:56.663Z,41.87
2019-02-15T09:05:29.288Z,43.57
2019-02-15T09:08:00.014Z,43.67
2019-02-15T09:10:31.354Z,39.47
2019-02-15T09:13:06.248Z,41.30
2019-02-15T09:15:48.905Z,45.07
2019-02-15T09:18:42.182Z,47.47
2019-02-15T09:21:31.857Z,46.70
2019-02-15T09:24:25.246Z,43.93
2019-02-15T09:27:13.168Z,46.03
2019-02-15T09:29:57.193Z,44.03
2019-02-15T09:32:42.167Z,49.00
2019-02-15T09:35:25.386Z,45.77
2019-02-15T09:38:13.967Z,47.87
2019-02-15T09:40:54.340Z,50.10
2019-02-15T09:43:37.975Z,51.23
2019-02-15T09:49:36.459Z,54.63
2019-02-15T09:52:11.231Z,55.43
2019-02-15T09:58:00.464Z,54.20
2019-02-15T10:00:34.128Z,53.00
2019-02-15T10:03:11.043Z,55.97
2019-02-15T10:05:44.003Z,59.50
2019-02-15T10:08:28.231Z,51.30
2019-02-15T10:11:08.403Z,58.10
2019-02-15T10:13:39.421Z,60.30
2019-02-15T10:16:10.697Z,58.93
2019-02-15T10:18:42.136Z,54.83
2019-02-15T10:21:15.030Z,58.97
2019-02-15T10:23:46.626Z,49.13
2019-02-15T10:26:17.357Z,50.67
2019-02-15T10:28:48.047Z,44.10
2019-02-15T10:31:18.752Z,44.70
2019-02-15T10:33:49.382Z,52.07
2019-02-15T10:36:20.230Z,48.70
2019-02-15T10:38:50.870Z,53.17
2019-02-15T10:41:21.989Z,47.30
2019-02-15T10:43:53.748Z,53.47
2019-02-15T10:46:25.379Z,50.23
2019-02-15T10:48:56.397Z,50.67
2019-02-15T10:51:27.671Z,55.23
2019-02-15T10:54:00.093Z,51.77
2019-02-15T10:56:31.112Z,50.27
2019-02-15T10:59:01.910Z,47.43
2019-02-15T11:01:32.534Z,62.10
2019-02-15T11:04:03.104Z,50.73
2019-02-15T11:06:33.520Z,48.77
2019-02-15T11:09:05.528Z,59.20
2019-02-15T11:11:37.908Z,50.17
2019-02-15T11:14:08.575Z,61.30
2019-02-15T11:16:46.940Z,60.37
2019-02-15T11:19:10.979Z,51.70
2019-02-15T11:21:41.751Z,57.83
2019-02-15T11:24:12.060Z,54.33
2019-02-15T11:26:42.351Z,56.83
2019-02-15T11:29:13.697Z,51.87
2019-02-15T11:31:44.000Z,53.93
2019-02-15T11:34:14.453Z,52.70
2019-02-15T11:36:45.140Z,54.63
2019-02-15T11:39:15.476Z,54.30
2019-02-15T11:41:45.775Z,51.17
2019-02-15T11:44:16.111Z,46.80
2019-02-15T11:46:46.392Z,54.93
2019-02-15T11:49:16.690Z,45.13
2019-02-15T11:51:47.029Z,49.47
2019-02-15T11:54:23.675Z,54.77
2019-02-15T11:56:49.353Z,48.40
2019-02-15T11:59:19.776Z,55.83
2019-02-15T12:01:50.250Z,50.83
2019-02-15T12:04:20.557Z,54.47
2019-02-15T12:06:50.857Z,55.57
2019-02-15T12:09:21.276Z,48.77
2019-02-15T12:11:51.631Z,55.23
2019-02-15T12:14:22.069Z,51.67
2019-02-15T12:16:52.435Z,51.67
2019-02-15T12:19:22.786Z,55.00
2019-02-15T12:21:53.148Z,55.50
2019-02-15T12:24:23.501Z,53.23
2019-02-15T12:26:54.159Z,53.00
2019-02-15T12:29:24.983Z,59.40
2019-02-15T12:31:55.306Z,59.70
2019-02-15T12:34:25.613Z,57.23
2019-02-15T12:36:55.927Z,64.00
2019-02-15T12:39:26.367Z,59.73
2019-02-15T12:41:56.638Z,60.03
2019-02-15T12:44:27.809Z,55.10
2019-02-15T12:46:58.305Z,61.93
2019-02-15T12:49:29.543Z,57.20
2019-02-15T12:51:59.899Z,58.17
2019-02-15T12:54:30.325Z,58.80
2019-02-15T12:57:00.675Z,63.10
2019-02-15T12:59:32.559Z,59.77
2019-02-15T13:02:02.875Z,62.73
2019-02-15T13:04:33.236Z,54.90
2019-02-15T13:07:03.862Z,57.70
2019-02-15T13:09:34.150Z,68.73
2019-02-15T13:12:04.486Z,68.40
2019-02-15T13:14:34.955Z,67.67
2019-02-15T13:17:05.458Z,93.70
2019-02-15T13:19:35.755Z,72.90
2019-02-15T13:22:07.154Z,53.97
2019-02-15T13:24:37.439Z,59.63
2019-02-15T13:27:07.828Z,77.13
2019-02-15T13:29:38.434Z,73.13
2019-02-15T13:32:09.819Z,65.63
2019-02-15T13:34:40.620Z,61.80
2019-02-15T13:37:12.232Z,57.10
2019-02-15T13:39:46.081Z,56.50
2019-02-15T13:42:16.564Z,56.67
2019-02-15T13:44:47.563Z,53.63
2019-02-15T13:47:17.831Z,64.73
2019-02-15T13:49:48.260Z,62.93
2019-02-15T13:52:18.651Z,58.67
2019-02-15T13:54:48.947Z,62.33
2019-02-15T13:57:19.312Z,59.97
2019-02-15T13:59:49.662Z,61.63
2019-02-15T14:02:19.995Z,69.57
2019-02-15T14:04:50.303Z,70.77
2019-02-15T14:07:20.788Z,64.20
2019-02-15T14:09:51.262Z,72.97
2019-02-15T14:12:21.601Z,66.43
2019-02-15T14:14:51.985Z,69.93
2019-02-15T14:17:22.361Z,66.30
2019-02-15T14:19:52.710Z,64.37
2019-02-15T14:22:23.075Z,69.87
2019-02-15T14:24:53.410Z,64.80
2019-02-15T14:27:23.840Z,68.30
2019-02-15T14:29:54.180Z,58.70
2019-02-15T14:32:24.820Z,61.97
2019-02-15T14:34:55.702Z,66.93
2019-02-15T14:37:26.057Z,67.80
2019-02-15T14:39:56.348Z,69.27
2019-02-15T14:42:26.659Z,64.53
2019-02-15T14:44:57.101Z,70.33
2019-02-15T14:47:27.379Z,64.50
2019-02-15T14:49:57.751Z,64.93
2019-02-15T14:52:28.028Z,64.27
2019-02-15T14:54:59.112Z,67.23
2019-02-15T14:57:29.560Z,58.57
2019-02-15T14:59:59.898Z,66.03
2019-02-15T15:02:31.237Z,61.67
2019-02-15T15:05:01.552Z,67.43
2019-02-15T15:07:33.003Z,69.17
2019-02-15T15:10:03.385Z,59.47
2019-02-15T15:12:33.760Z,64.00
2019-02-15T15:15:08.267Z,59.70
2019-02-15T15:17:38.666Z,61.83
2019-02-15T15:20:10.878Z,71.93
2019-02-15T15:22:41.305Z,67.37
2019-02-15T15:25:13.866Z,71.20
2019-02-15T15:27:44.190Z,89.67
2019-02-15T15:30:19.882Z,80.97
2019-02-15T15:32:51.369Z,89.17
2019-02-15T15:35:26.147Z,92.40
2019-02-15T15:37:56.979Z,96.73
2019-02-15T15:40:27.522Z,92.90
2019-02-15T15:42:59.185Z,86.50
2019-02-15T15:45:29.692Z,89.50
2019-02-15T15:48:00.381Z,93.83
2019-02-15T15:50:31.149Z,103.83
2019-02-15T15:53:02.139Z,103.27
2019-02-15T15:55:33.108Z,137.60
2019-02-15T15:58:04.077Z,117.87
2019-02-15T16:00:38.939Z,131.67
2019-02-15T16:03:07.580Z,110.20
2019-02-15T16:05:38.140Z,111.23
2019-02-15T16:08:08.539Z,114.23
2019-02-15T16:10:39.016Z,126.50
2019-02-15T16:13:09.662Z,114.10
2019-02-15T16:15:41.348Z,139.20
2019-02-15T16:18:12.186Z,141.80
2019-02-15T16:20:42.700Z,152.03
2019-02-15T16:23:13.591Z,153.37
2019-02-15T16:25:44.200Z,133.03
2019-02-15T16:28:14.851Z,105.87
2019-02-15T16:30:45.502Z,102.57
2019-02-15T16:33:16.075Z,85.97
2019-02-15T16:35:46.506Z,89.13
2019-02-15T16:38:17.317Z,96.83
2019-02-15T16:40:48.419Z,86.10
2019-02-15T16:43:19.502Z,91.63
2019-02-15T16:45:50.259Z,84.70
2019-02-15T16:48:20.562Z,83.03
2019-02-15T16:50:51.169Z,85.70
2019-02-15T16:53:21.594Z,81.30
2019-02-15T16:55:52.354Z,89.93
2019-02-15T16:58:23.132Z,89.67
2019-02-15T17:00:55.581Z,98.90
2019-02-15T17:03:27.172Z,88.07
2019-02-15T17:05:58.365Z,88.20
2019-02-15T17:08:31.669Z,100.87
2019-02-15T17:11:03.960Z,110.50
2019-02-15T17:13:34.804Z,105.80
2019-02-15T17:16:05.577Z,110.43
2019-02-15T17:18:37.220Z,124.87
2019-02-15T17:21:08.143Z,113.27
2019-02-15T17:23:38.549Z,109.17
2019-02-15T17:26:08.879Z,122.67
2019-02-15T17:28:40.375Z,107.73
2019-02-15T17:31:12.264Z,109.00
2019-02-15T17:34:02.463Z,108.50
2019-02-15T17:36:45.477Z,101.67
2019-02-15T17:39:24.255Z,101.37
2019-02-15T17:41:59.892Z,126.50
2019-02-15T17:44:38.777Z,121.73
2019-02-15T17:47:10.629Z,119.87
2019-02-15T17:49:45.140Z,132.83
2019-02-15T17:52:23.890Z,128.00
2019-02-15T17:54:59.444Z,127.70
2019-02-15T17:57:32.016Z,166.37
2019-02-15T18:00:09.951Z,143.13
2019-02-15T18:02:44.099Z,160.37
2019-02-15T18:05:19.018Z,142.57
2019-02-15T18:07:56.259Z,125.20
2019-02-15T18:10:31.011Z,119.53
2019-02-15T18:13:02.824Z,132.67
2019-02-15T18:15:47.273Z,160.00
2019-02-15T18:18:42.222Z,160.50
2019-02-15T18:21:22.721Z,138.97
2019-02-15T18:23:54.599Z,121.33
2019-02-15T18:26:28.737Z,112.30
2019-02-15T18:29:00.185Z,106.67
2019-02-15T18:31:31.769Z,96.93
2019-02-15T18:34:03.341Z,183.27
2019-02-15T18:36:36.659Z,221.87
2019-02-15T18:39:09.981Z,170.50
2019-02-15T18:41:46.268Z,189.40
2019-02-15T18:44:18.547Z,193.07
2019-02-15T18:46:51.141Z,197.33
2019-02-15T18:49:26.953Z,155.87
2019-02-15T18:52:11.119Z,136.00
2019-02-15T18:54:44.849Z,139.87
2019-02-15T18:57:15.145Z,156.17
2019-02-15T18:59:46.273Z,129.60
2019-02-15T19:02:24.266Z,110.70
2019-02-15T19:05:18.433Z,126.63
2019-02-15T19:08:03.372Z,112.97
2019-02-15T19:10:57.421Z,146.10
2019-02-15T19:13:33.362Z,180.53
2019-02-15T19:16:04.684Z,172.80
2019-02-15T19:18:35.600Z,124.17
2019-02-15T19:21:07.361Z,124.87
2019-02-15T19:23:39.521Z,134.90
2019-02-15T19:26:11.275Z,173.03
2019-02-15T19:28:43.099Z,149.80
2019-02-15T19:31:14.735Z,139.10
2019-02-15T19:33:48.701Z,136.00
2019-02-15T19:36:19.801Z,119.47
2019-02-15T19:38:52.217Z,116.27
2019-02-15T19:41:24.100Z,113.00
2019-02-15T19:43:56.547Z,112.70
2019-02-15T19:46:29.920Z,100.90
2019-02-15T19:49:01.180Z,103.37
2019-02-15T19:51:33.339Z,109.43
2019-02-15T19:54:04.879Z,93.50
2019-02-15T19:56:35.238Z,117.00
2019-02-15T19:59:09.416Z,182.80
2019-02-15T20:01:41.909Z,195.07
2019-02-15T20:04:13.755Z,177.87
2019-02-15T20:06:45.854Z,157.47
2019-02-15T20:09:19.639Z,166.40
2019-02-15T20:11:50.647Z,190.13
2019-02-15T20:14:21.715Z,175.93
2019-02-15T20:16:55.583Z,188.40
2019-02-15T20:19:26.649Z,187.23
2019-02-15T20:22:25.767Z,165.77
2019-02-15T20:25:10.422Z,166.07
2019-02-15T20:27:41.043Z,229.53
2019-02-15T20:30:19.400Z,212.90
2019-02-15T20:32:51.500Z,198.60
2019-02-15T20:35:25.579Z,253.10
2019-02-15T20:37:56.423Z,246.77
2019-02-15T20:40:28.910Z,218.57
2019-02-15T20:43:11.123Z,217.67
2019-02-15T20:45:50.602Z,205.63
2019-02-15T20:48:25.744Z,200.33
2019-02-15T20:50:56.821Z,197.10
2019-02-15T20:53:27.712Z,200.77
2019-02-15T20:55:58.172Z,219.57
2019-02-15T20:58:28.784Z,230.53
2019-02-15T21:01:00.742Z,251.13
2019-02-15T21:03:31.289Z,212.80
2019-02-15T21:06:14.565Z,206.40
2019-02-15T21:08:48.222Z,222.73
2019-02-15T21:11:29.173Z,213.43
2019-02-15T21:14:30.304Z,213.63
2019-02-15T21:17:09.583Z,225.87
2019-02-15T21:19:45.617Z,235.63
2019-02-15T21:22:21.392Z,246.83
2019-02-15T21:25:17.250Z,242.50
2019-02-15T21:27:59.872Z,261.30
2019-02-15T21:30:41.928Z,262.17
2019-02-15T21:33:17.057Z,264.70
2019-02-15T21:35:59.198Z,227.10
2019-02-15T21:38:37.935Z,199.30
2019-02-15T21:41:08.848Z,193.93
2019-02-15T21:43:54.781Z,171.83
2019-02-15T21:46:52.546Z,152.77
2019-02-15T21:49:48.120Z,141.10
2019-02-15T21:52:33.609Z,154.20
2019-02-15T21:55:16.506Z,162.90
2019-02-15T21:58:01.150Z,171.83
2019-02-15T22:00:26.661Z,172.10
2019-02-15T22:03:11.006Z,161.50
2019-02-15T22:06:08.342Z,182.43
2019-02-15T22:08:49.751Z,182.40
2019-02-15T22:11:23.904Z,179.87
2019-02-15T22:13:56.921Z,160.33
2019-02-15T22:16:32.084Z,160.50
2019-02-15T22:19:07.507Z,153.60
2019-02-15T22:21:38.615Z,160.90
2019-02-15T22:24:09.978Z,146.33
2019-02-15T22:26:40.940Z,122.67
2019-02-15T22:29:12.738Z,97.40
2019-02-15T22:31:45.888Z,108.63
2019-02-15T22:34:16.761Z,102.00
2019-02-15T22:36:48.229Z,85.93
2019-02-15T22:39:19.199Z,74.97
2019-02-15T22:41:49.916Z,79.13
2019-02-15T22:44:22.279Z,71.83
2019-02-15T22:47:15.705Z,75.67
2019-02-15T22:49:46.750Z,75.33
2019-02-15T22:52:18.801Z,83.80
2019-02-15T22:54:50.740Z,71.50
2019-02-15T22:57:22.361Z,73.20
2019-02-15T22:59:55.563Z,65.53
2019-02-15T23:02:27.175Z,59.73
2019-02-15T23:04:58.640Z,68.10
2019-02-15T23:07:30.001Z,61.40
2019-02-15T23:10:01.240Z,65.10
2019-02-15T23:12:32.708Z,64.03
2019-02-15T23:15:04.240Z,64.57
2019-02-15T23:17:35.169Z,57.87
2019-02-15T23:20:07.583Z,61.93
2019-02-15T23:22:39.173Z,62.67
2019-02-15T23:25:10.604Z,57.20
2019-02-15T23:27:42.079Z,56.47
2019-02-15T23:30:14.341Z,54.50
2019-02-15T23:32:45.464Z,50.67
2019-02-15T23:35:17.222Z,50.60
2019-02-15T23:37:48.762Z,59.43
2019-02-15T23:40:19.726Z,64.67
2019-02-15T23:42:50.924Z,60.20
2019-02-15T23:45:21.904Z,63.63
2019-02-15T23:47:52.618Z,67.50
2019-02-15T23:50:23.359Z,65.80
2019-02-15T23:52:54.442Z,71.63
2019-02-15T23:55:25.446Z,61.40
2019-02-15T23:57:56.363Z,69.80
